sensor_id;sensor_type;location;lat;lon;timestamp;P1;durP1;ratioP1;P2;durP2;ratioP2
31206;SDS011;17834;52.992;8.856;2023-08-21T00:00:01;9.05;;;3.35;;
31206;SDS011;17834;52.992;8.856;2023-08-21T00:02:29;8.55;;;4.03;;
31206;SDS011;17834;52.992;8.856;2023-08-21T00:04:54;8.05;;;3.78;;
31206;SDS011;17834;52.992;8.856;2023-08-21T00:07:20;6.90;;;3.70;;
31206;SDS011;17834;52.992;8.856;2023-08-21T00:09:45;8.75;;;3.75;;
31206;SDS011;17834;52.992;8.856;2023-08-21T00:12:11;6.38;;;3.67;;
31206;SDS011;17834;52.992;8.856;2023-08-21T00:14:37;6.47;;;3.72;;
31206;SDS011;17834;52.992;8.856;2023-08-21T00:17:02;7.00;;;3.75;;
31206;SDS011;17834;52.992;8.856;2023-08-21T00:19:28;5.15;;;3.72;;
31206;SDS011;17834;52.992;8.856;2023-08-21T00:21:54;10.15;;;4.03;;
31206;SDS011;17834;52.992;8.856;2023-08-21T00:24:20;5.88;;;4.20;;
31206;SDS011;17834;52.992;8.856;2023-08-21T00:26:45;8.50;;;4.43;;
31206;SDS011;17834;52.992;8.856;2023-08-21T00:29:11;15.88;;;5.35;;
31206;SDS011;17834;52.992;8.856;2023-08-21T00:31:37;7.15;;;4.20;;
31206;SDS011;17834;52.992;8.856;2023-08-21T00:34:02;10.05;;;5.30;;
31206;SDS011;17834;52.992;8.856;2023-08-21T00:36:28;13.18;;;5.70;;
31206;SDS011;17834;52.992;8.856;2023-08-21T00:38:53;10.50;;;4.93;;
31206;SDS011;17834;52.992;8.856;2023-08-21T00:41:19;9.88;;;4.72;;
31206;SDS011;17834;52.992;8.856;2023-08-21T00:43:44;8.85;;;4.88;;
31206;SDS011;17834;52.992;8.856;2023-08-21T00:46:10;9.90;;;4.70;;
31206;SDS011;17834;52.992;8.856;2023-08-21T00:48:36;11.43;;;5.65;;
31206;SDS011;17834;52.992;8.856;2023-08-21T00:51:02;7.70;;;4.55;;
31206;SDS011;17834;52.992;8.856;2023-08-21T00:53:30;11.00;;;5.70;;
31206;SDS011;17834;52.992;8.856;2023-08-21T00:55:55;8.15;;;4.55;;
31206;SDS011;17834;52.992;8.856;2023-08-21T00:58:21;11.02;;;6.05;;
31206;SDS011;17834;52.992;8.856;2023-08-21T01:00:47;9.35;;;5.15;;
31206;SDS011;17834;52.992;8.856;2023-08-21T01:03:15;10.73;;;5.32;;
31206;SDS011;17834;52.992;8.856;2023-08-21T01:05:40;11.60;;;5.22;;
31206;SDS011;17834;52.992;8.856;2023-08-21T01:08:07;13.18;;;5.60;;
31206;SDS011;17834;52.992;8.856;2023-08-21T01:15:58;9.30;;;5.07;;
31206;SDS011;17834;52.992;8.856;2023-08-21T01:18:24;11.93;;;5.43;;
31206;SDS011;17834;52.992;8.856;2023-08-21T01:20:52;12.40;;;5.40;;
31206;SDS011;17834;52.992;8.856;2023-08-21T01:26:06;7.15;;;4.90;;
31206;SDS011;17834;52.992;8.856;2023-08-21T01:28:32;11.27;;;5.35;;
31206;SDS011;17834;52.992;8.856;2023-08-21T01:31:00;10.38;;;5.03;;
31206;SDS011;17834;52.992;8.856;2023-08-21T01:33:45;10.90;;;5.95;;
31206;SDS011;17834;52.992;8.856;2023-08-21T01:36:15;10.88;;;5.75;;
31206;SDS011;17834;52.992;8.856;2023-08-21T01:38:40;11.25;;;6.28;;
31206;SDS011;17834;52.992;8.856;2023-08-21T01:41:06;12.50;;;5.72;;
31206;SDS011;17834;52.992;8.856;2023-08-21T01:43:32;9.32;;;4.85;;
31206;SDS011;17834;52.992;8.856;2023-08-21T01:45:57;8.55;;;5.43;;
31206;SDS011;17834;52.992;8.856;2023-08-21T01:48:23;10.80;;;5.30;;
31206;SDS011;17834;52.992;8.856;2023-08-21T01:50:49;7.78;;;4.80;;
31206;SDS011;17834;52.992;8.856;2023-08-21T01:53:14;11.05;;;5.38;;
31206;SDS011;17834;52.992;8.856;2023-08-21T01:55:40;10.10;;;4.95;;
31206;SDS011;17834;52.992;8.856;2023-08-21T01:58:05;12.88;;;5.07;;
31206;SDS011;17834;52.992;8.856;2023-08-21T02:00:31;8.65;;;5.18;;
31206;SDS011;17834;52.992;8.856;2023-08-21T02:02:56;10.07;;;5.30;;
31206;SDS011;17834;52.992;8.856;2023-08-21T02:05:22;10.98;;;6.68;;
31206;SDS011;17834;52.992;8.856;2023-08-21T02:07:47;12.57;;;6.68;;
31206;SDS011;17834;52.992;8.856;2023-08-21T02:10:13;11.82;;;5.20;;
31206;SDS011;17834;52.992;8.856;2023-08-21T02:12:38;8.93;;;5.22;;
31206;SDS011;17834;52.992;8.856;2023-08-21T02:15:04;10.13;;;5.20;;
31206;SDS011;17834;52.992;8.856;2023-08-21T02:17:30;8.48;;;5.63;;
31206;SDS011;17834;52.992;8.856;2023-08-21T02:19:56;8.68;;;5.15;;
31206;SDS011;17834;52.992;8.856;2023-08-21T02:22:21;10.63;;;5.35;;
31206;SDS011;17834;52.992;8.856;2023-08-21T02:24:47;9.70;;;5.38;;
31206;SDS011;17834;52.992;8.856;2023-08-21T02:27:12;11.90;;;5.68;;
31206;SDS011;17834;52.992;8.856;2023-08-21T02:29:38;12.23;;;6.63;;
31206;SDS011;17834;52.992;8.856;2023-08-21T02:32:04;11.02;;;6.25;;
31206;SDS011;17834;52.992;8.856;2023-08-21T02:34:29;13.48;;;6.22;;
31206;SDS011;17834;52.992;8.856;2023-08-21T02:36:55;11.15;;;6.35;;
31206;SDS011;17834;52.992;8.856;2023-08-21T02:39:20;11.15;;;7.00;;
31206;SDS011;17834;52.992;8.856;2023-08-21T02:41:46;7.70;;;5.65;;
31206;SDS011;17834;52.992;8.856;2023-08-21T02:44:11;13.05;;;5.75;;
31206;SDS011;17834;52.992;8.856;2023-08-21T02:46:37;7.90;;;5.10;;
31206;SDS011;17834;52.992;8.856;2023-08-21T02:49:02;12.68;;;6.10;;
31206;SDS011;17834;52.992;8.856;2023-08-21T02:51:28;13.20;;;6.45;;
31206;SDS011;17834;52.992;8.856;2023-08-21T02:53:53;11.68;;;6.30;;
31206;SDS011;17834;52.992;8.856;2023-08-21T02:56:19;12.27;;;6.65;;
31206;SDS011;17834;52.992;8.856;2023-08-21T02:58:44;9.45;;;5.50;;
31206;SDS011;17834;52.992;8.856;2023-08-21T03:01:10;18.45;;;6.95;;
31206;SDS011;17834;52.992;8.856;2023-08-21T03:03:36;18.20;;;7.43;;
31206;SDS011;17834;52.992;8.856;2023-08-21T03:06:02;10.35;;;5.85;;
31206;SDS011;17834;52.992;8.856;2023-08-21T03:08:27;14.18;;;6.57;;
31206;SDS011;17834;52.992;8.856;2023-08-21T03:10:53;11.80;;;6.28;;
31206;SDS011;17834;52.992;8.856;2023-08-21T03:13:18;11.35;;;6.65;;
31206;SDS011;17834;52.992;8.856;2023-08-21T03:15:44;13.43;;;6.00;;
31206;SDS011;17834;52.992;8.856;2023-08-21T03:18:10;10.20;;;6.05;;
31206;SDS011;17834;52.992;8.856;2023-08-21T03:20:35;12.90;;;6.03;;
31206;SDS011;17834;52.992;8.856;2023-08-21T03:23:01;10.38;;;5.82;;
31206;SDS011;17834;52.992;8.856;2023-08-21T03:25:27;13.75;;;6.18;;
31206;SDS011;17834;52.992;8.856;2023-08-21T03:27:53;10.60;;;5.70;;
31206;SDS011;17834;52.992;8.856;2023-08-21T03:30:18;12.02;;;6.68;;
31206;SDS011;17834;52.992;8.856;2023-08-21T03:32:44;14.77;;;6.55;;
31206;SDS011;17834;52.992;8.856;2023-08-21T03:35:09;10.50;;;6.63;;
31206;SDS011;17834;52.992;8.856;2023-08-21T03:37:35;13.50;;;6.65;;
31206;SDS011;17834;52.992;8.856;2023-08-21T03:40:02;11.45;;;7.03;;
31206;SDS011;17834;52.992;8.856;2023-08-21T03:42:28;13.43;;;7.00;;
31206;SDS011;17834;52.992;8.856;2023-08-21T03:44:53;13.75;;;7.40;;
31206;SDS011;17834;52.992;8.856;2023-08-21T03:47:19;9.80;;;5.93;;
31206;SDS011;17834;52.992;8.856;2023-08-21T03:49:44;12.13;;;6.20;;
31206;SDS011;17834;52.992;8.856;2023-08-21T03:52:13;12.48;;;6.20;;
31206;SDS011;17834;52.992;8.856;2023-08-21T03:54:38;10.82;;;6.38;;
31206;SDS011;17834;52.992;8.856;2023-08-21T03:57:04;8.18;;;5.20;;
31206;SDS011;17834;52.992;8.856;2023-08-21T03:59:29;14.75;;;6.70;;
31206;SDS011;17834;52.992;8.856;2023-08-21T04:01:55;15.10;;;7.80;;
31206;SDS011;17834;52.992;8.856;2023-08-21T04:04:20;14.10;;;7.53;;
31206;SDS011;17834;52.992;8.856;2023-08-21T04:06:46;16.75;;;7.38;;
31206;SDS011;17834;52.992;8.856;2023-08-21T04:09:11;15.65;;;7.20;;
31206;SDS011;17834;52.992;8.856;2023-08-21T04:11:37;14.25;;;7.80;;
31206;SDS011;17834;52.992;8.856;2023-08-21T04:14:03;17.00;;;8.30;;
31206;SDS011;17834;52.992;8.856;2023-08-21T04:16:29;17.08;;;8.45;;
31206;SDS011;17834;52.992;8.856;2023-08-21T04:18:55;12.10;;;7.10;;
31206;SDS011;17834;52.992;8.856;2023-08-21T04:21:21;14.80;;;8.30;;
31206;SDS011;17834;52.992;8.856;2023-08-21T04:23:47;18.90;;;8.63;;
31206;SDS011;17834;52.992;8.856;2023-08-21T04:26:12;15.15;;;8.95;;
31206;SDS011;17834;52.992;8.856;2023-08-21T04:28:38;14.38;;;7.57;;
31206;SDS011;17834;52.992;8.856;2023-08-21T04:31:04;17.35;;;7.63;;
31206;SDS011;17834;52.992;8.856;2023-08-21T04:33:32;19.25;;;8.20;;
31206;SDS011;17834;52.992;8.856;2023-08-21T04:35:58;12.55;;;7.53;;
31206;SDS011;17834;52.992;8.856;2023-08-21T04:38:24;14.85;;;8.20;;
31206;SDS011;17834;52.992;8.856;2023-08-21T04:40:50;14.32;;;7.53;;
31206;SDS011;17834;52.992;8.856;2023-08-21T04:43:15;17.38;;;7.97;;
31206;SDS011;17834;52.992;8.856;2023-08-21T04:45:51;12.45;;;6.95;;
31206;SDS011;17834;52.992;8.856;2023-08-21T04:48:19;14.30;;;7.43;;
31206;SDS011;17834;52.992;8.856;2023-08-21T04:50:46;16.02;;;8.32;;
31206;SDS011;17834;52.992;8.856;2023-08-21T04:53:11;24.02;;;8.55;;
31206;SDS011;17834;52.992;8.856;2023-08-21T04:55:37;13.40;;;7.60;;
31206;SDS011;17834;52.992;8.856;2023-08-21T04:58:06;13.40;;;7.68;;
31206;SDS011;17834;52.992;8.856;2023-08-21T05:00:32;16.75;;;9.30;;
31206;SDS011;17834;52.992;8.856;2023-08-21T05:02:58;14.13;;;8.02;;
31206;SDS011;17834;52.992;8.856;2023-08-21T05:05:24;15.98;;;7.90;;
31206;SDS011;17834;52.992;8.856;2023-08-21T05:07:49;14.30;;;8.45;;
31206;SDS011;17834;52.992;8.856;2023-08-21T05:10:15;11.65;;;7.55;;
31206;SDS011;17834;52.992;8.856;2023-08-21T05:12:40;15.63;;;8.15;;
31206;SDS011;17834;52.992;8.856;2023-08-21T05:15:06;15.95;;;8.02;;
31206;SDS011;17834;52.992;8.856;2023-08-21T05:17:32;14.68;;;8.57;;
31206;SDS011;17834;52.992;8.856;2023-08-21T05:19:57;14.65;;;7.90;;
31206;SDS011;17834;52.992;8.856;2023-08-21T05:22:23;16.65;;;8.77;;
31206;SDS011;17834;52.992;8.856;2023-08-21T05:24:49;15.23;;;8.15;;
31206;SDS011;17834;52.992;8.856;2023-08-21T05:27:14;15.60;;;8.68;;
31206;SDS011;17834;52.992;8.856;2023-08-21T05:29:40;14.73;;;8.07;;
31206;SDS011;17834;52.992;8.856;2023-08-21T05:32:05;21.33;;;9.00;;
31206;SDS011;17834;52.992;8.856;2023-08-21T05:34:32;17.70;;;9.38;;
31206;SDS011;17834;52.992;8.856;2023-08-21T05:36:57;18.83;;;9.02;;
31206;SDS011;17834;52.992;8.856;2023-08-21T05:39:23;16.65;;;8.85;;
31206;SDS011;17834;52.992;8.856;2023-08-21T05:41:48;19.40;;;10.15;;
31206;SDS011;17834;52.992;8.856;2023-08-21T05:44:14;20.13;;;9.93;;
31206;SDS011;17834;52.992;8.856;2023-08-21T05:46:40;24.75;;;11.20;;
31206;SDS011;17834;52.992;8.856;2023-08-21T05:49:05;29.02;;;11.60;;
31206;SDS011;17834;52.992;8.856;2023-08-21T05:51:31;24.17;;;10.18;;
31206;SDS011;17834;52.992;8.856;2023-08-21T05:53:56;29.25;;;11.60;;
31206;SDS011;17834;52.992;8.856;2023-08-21T05:56:22;33.70;;;13.25;;
31206;SDS011;17834;52.992;8.856;2023-08-21T05:58:48;34.63;;;14.48;;
31206;SDS011;17834;52.992;8.856;2023-08-21T06:01:14;37.45;;;16.23;;
31206;SDS011;17834;52.992;8.856;2023-08-21T06:03:39;27.80;;;12.82;;
31206;SDS011;17834;52.992;8.856;2023-08-21T06:06:05;30.95;;;15.10;;
31206;SDS011;17834;52.992;8.856;2023-08-21T06:08:30;28.75;;;13.18;;
31206;SDS011;17834;52.992;8.856;2023-08-21T06:10:56;32.08;;;12.10;;
31206;SDS011;17834;52.992;8.856;2023-08-21T06:13:22;28.35;;;13.23;;
31206;SDS011;17834;52.992;8.856;2023-08-21T06:15:47;39.90;;;14.93;;
31206;SDS011;17834;52.992;8.856;2023-08-21T06:18:13;31.35;;;12.65;;
31206;SDS011;17834;52.992;8.856;2023-08-21T06:20:41;37.80;;;14.02;;
31206;SDS011;17834;52.992;8.856;2023-08-21T06:23:08;27.42;;;12.48;;
31206;SDS011;17834;52.992;8.856;2023-08-21T06:25:34;27.35;;;12.27;;
31206;SDS011;17834;52.992;8.856;2023-08-21T06:27:59;28.95;;;13.40;;
31206;SDS011;17834;52.992;8.856;2023-08-21T06:30:25;26.77;;;13.35;;
31206;SDS011;17834;52.992;8.856;2023-08-21T06:32:51;39.03;;;17.55;;
31206;SDS011;17834;52.992;8.856;2023-08-21T06:35:17;55.40;;;19.83;;
31206;SDS011;17834;52.992;8.856;2023-08-21T06:37:43;43.80;;;18.08;;
31206;SDS011;17834;52.992;8.856;2023-08-21T06:40:08;39.88;;;16.08;;
31206;SDS011;17834;52.992;8.856;2023-08-21T06:42:34;29.08;;;12.27;;
31206;SDS011;17834;52.992;8.856;2023-08-21T06:45:00;23.00;;;10.93;;
31206;SDS011;17834;52.992;8.856;2023-08-21T06:47:25;21.95;;;10.68;;
31206;SDS011;17834;52.992;8.856;2023-08-21T06:49:51;20.92;;;9.63;;
31206;SDS011;17834;52.992;8.856;2023-08-21T06:52:17;22.75;;;10.00;;
31206;SDS011;17834;52.992;8.856;2023-08-21T06:54:42;18.17;;;7.85;;
31206;SDS011;17834;52.992;8.856;2023-08-21T06:57:08;19.40;;;8.75;;
31206;SDS011;17834;52.992;8.856;2023-08-21T06:59:33;21.50;;;7.97;;
31206;SDS011;17834;52.992;8.856;2023-08-21T07:02:01;14.25;;;7.10;;
31206;SDS011;17834;52.992;8.856;2023-08-21T07:04:28;16.90;;;7.65;;
31206;SDS011;17834;52.992;8.856;2023-08-21T07:06:53;12.65;;;6.25;;
31206;SDS011;17834;52.992;8.856;2023-08-21T07:09:19;18.35;;;8.50;;
31206;SDS011;17834;52.992;8.856;2023-08-21T07:11:44;14.55;;;6.40;;
31206;SDS011;17834;52.992;8.856;2023-08-21T07:14:10;15.82;;;7.05;;
31206;SDS011;17834;52.992;8.856;2023-08-21T07:16:38;17.95;;;5.88;;
31206;SDS011;17834;52.992;8.856;2023-08-21T07:19:04;14.82;;;6.53;;
31206;SDS011;17834;52.992;8.856;2023-08-21T07:21:29;15.68;;;6.63;;
31206;SDS011;17834;52.992;8.856;2023-08-21T07:23:54;20.55;;;6.90;;
31206;SDS011;17834;52.992;8.856;2023-08-21T07:26:20;17.15;;;6.47;;
31206;SDS011;17834;52.992;8.856;2023-08-21T07:28:46;14.00;;;6.43;;
31206;SDS011;17834;52.992;8.856;2023-08-21T07:31:12;11.88;;;5.05;;
31206;SDS011;17834;52.992;8.856;2023-08-21T07:33:37;11.40;;;4.47;;
31206;SDS011;17834;52.992;8.856;2023-08-21T07:36:03;15.52;;;4.80;;
31206;SDS011;17834;52.992;8.856;2023-08-21T07:38:30;15.60;;;4.72;;
31206;SDS011;17834;52.992;8.856;2023-08-21T07:41:05;13.90;;;3.90;;
31206;SDS011;17834;52.992;8.856;2023-08-21T07:43:35;15.73;;;4.25;;
31206;SDS011;17834;52.992;8.856;2023-08-21T07:46:02;9.55;;;3.75;;
31206;SDS011;17834;52.992;8.856;2023-08-21T07:48:29;17.65;;;4.03;;
31206;SDS011;17834;52.992;8.856;2023-08-21T07:50:54;11.18;;;3.10;;
31206;SDS011;17834;52.992;8.856;2023-08-21T07:53:20;14.13;;;4.05;;
31206;SDS011;17834;52.992;8.856;2023-08-21T07:55:45;12.32;;;3.83;;
31206;SDS011;17834;52.992;8.856;2023-08-21T07:58:11;11.43;;;3.53;;
31206;SDS011;17834;52.992;8.856;2023-08-21T08:00:37;9.30;;;3.00;;
31206;SDS011;17834;52.992;8.856;2023-08-21T08:03:03;11.75;;;3.25;;
31206;SDS011;17834;52.992;8.856;2023-08-21T08:05:30;13.70;;;3.47;;
31206;SDS011;17834;52.992;8.856;2023-08-21T08:07:56;9.25;;;2.90;;
31206;SDS011;17834;52.992;8.856;2023-08-21T08:10:22;11.23;;;3.35;;
31206;SDS011;17834;52.992;8.856;2023-08-21T08:12:47;13.60;;;3.63;;
31206;SDS011;17834;52.992;8.856;2023-08-21T08:15:13;12.90;;;3.50;;
31206;SDS011;17834;52.992;8.856;2023-08-21T08:17:38;9.77;;;3.50;;
31206;SDS011;17834;52.992;8.856;2023-08-21T08:20:04;8.55;;;2.90;;
31206;SDS011;17834;52.992;8.856;2023-08-21T08:22:31;11.93;;;3.25;;
31206;SDS011;17834;52.992;8.856;2023-08-21T08:24:56;7.38;;;2.45;;
31206;SDS011;17834;52.992;8.856;2023-08-21T08:27:22;13.38;;;3.22;;
31206;SDS011;17834;52.992;8.856;2023-08-21T08:29:48;10.50;;;2.65;;
31206;SDS011;17834;52.992;8.856;2023-08-21T08:32:14;7.82;;;2.50;;
31206;SDS011;17834;52.992;8.856;2023-08-21T08:34:40;10.73;;;2.72;;
31206;SDS011;17834;52.992;8.856;2023-08-21T08:37:05;13.82;;;4.18;;
31206;SDS011;17834;52.992;8.856;2023-08-21T08:39:31;9.40;;;2.50;;
31206;SDS011;17834;52.992;8.856;2023-08-21T08:41:58;6.53;;;2.45;;
31206;SDS011;17834;52.992;8.856;2023-08-21T08:44:27;11.27;;;2.42;;
31206;SDS011;17834;52.992;8.856;2023-08-21T08:46:54;6.53;;;2.00;;
31206;SDS011;17834;52.992;8.856;2023-08-21T08:49:21;9.00;;;2.65;;
31206;SDS011;17834;52.992;8.856;2023-08-21T08:51:48;7.25;;;1.75;;
31206;SDS011;17834;52.992;8.856;2023-08-21T08:54:15;5.43;;;1.70;;
31206;SDS011;17834;52.992;8.856;2023-08-21T08:56:42;4.82;;;2.10;;
31206;SDS011;17834;52.992;8.856;2023-08-21T08:59:08;11.40;;;2.55;;
31206;SDS011;17834;52.992;8.856;2023-08-21T09:01:34;9.90;;;2.15;;
31206;SDS011;17834;52.992;8.856;2023-08-21T09:04:00;5.97;;;2.05;;
31206;SDS011;17834;52.992;8.856;2023-08-21T09:06:26;6.05;;;2.17;;
31206;SDS011;17834;52.992;8.856;2023-08-21T09:08:56;8.88;;;1.55;;
31206;SDS011;17834;52.992;8.856;2023-08-21T09:11:22;6.82;;;1.88;;
31206;SDS011;17834;52.992;8.856;2023-08-21T09:13:49;7.22;;;1.60;;
31206;SDS011;17834;52.992;8.856;2023-08-21T09:16:15;7.63;;;2.40;;
31206;SDS011;17834;52.992;8.856;2023-08-21T09:18:48;8.65;;;2.05;;
31206;SDS011;17834;52.992;8.856;2023-08-21T09:21:18;3.80;;;1.60;;
31206;SDS011;17834;52.992;8.856;2023-08-21T09:23:45;5.20;;;1.92;;
31206;SDS011;17834;52.992;8.856;2023-08-21T09:26:11;6.15;;;1.90;;
31206;SDS011;17834;52.992;8.856;2023-08-21T09:28:45;7.18;;;1.98;;
31206;SDS011;17834;52.992;8.856;2023-08-21T09:31:11;5.78;;;1.85;;
31206;SDS011;17834;52.992;8.856;2023-08-21T09:33:36;7.22;;;1.77;;
31206;SDS011;17834;52.992;8.856;2023-08-21T09:36:02;8.02;;;1.75;;
31206;SDS011;17834;52.992;8.856;2023-08-21T09:38:29;7.15;;;1.50;;
31206;SDS011;17834;52.992;8.856;2023-08-21T09:40:55;5.10;;;1.38;;
31206;SDS011;17834;52.992;8.856;2023-08-21T09:43:22;6.80;;;1.45;;
31206;SDS011;17834;52.992;8.856;2023-08-21T09:45:49;6.43;;;1.30;;
31206;SDS011;17834;52.992;8.856;2023-08-21T09:48:18;3.70;;;1.20;;
31206;SDS011;17834;52.992;8.856;2023-08-21T09:50:46;5.75;;;1.80;;
31206;SDS011;17834;52.992;8.856;2023-08-21T09:53:11;4.72;;;1.52;;
31206;SDS011;17834;52.992;8.856;2023-08-21T09:55:37;4.78;;;1.90;;
31206;SDS011;17834;52.992;8.856;2023-08-21T09:58:05;5.00;;;1.33;;
31206;SDS011;17834;52.992;8.856;2023-08-21T10:00:33;5.80;;;1.65;;
31206;SDS011;17834;52.992;8.856;2023-08-21T10:03:01;3.53;;;1.13;;
31206;SDS011;17834;52.992;8.856;2023-08-21T10:05:28;8.15;;;1.30;;
31206;SDS011;17834;52.992;8.856;2023-08-21T10:07:55;7.20;;;1.20;;
31206;SDS011;17834;52.992;8.856;2023-08-21T10:10:20;3.17;;;1.13;;
31206;SDS011;17834;52.992;8.856;2023-08-21T10:12:48;5.85;;;1.17;;
31206;SDS011;17834;52.992;8.856;2023-08-21T10:15:14;4.82;;;1.00;;
31206;SDS011;17834;52.992;8.856;2023-08-21T10:17:42;6.95;;;1.63;;
31206;SDS011;17834;52.992;8.856;2023-08-21T10:20:09;6.13;;;1.50;;
31206;SDS011;17834;52.992;8.856;2023-08-21T10:22:44;2.60;;;1.10;;
31206;SDS011;17834;52.992;8.856;2023-08-21T10:25:14;3.17;;;1.00;;
31206;SDS011;17834;52.992;8.856;2023-08-21T10:27:57;3.78;;;1.25;;
31206;SDS011;17834;52.992;8.856;2023-08-21T10:30:26;6.00;;;1.50;;
31206;SDS011;17834;52.992;8.856;2023-08-21T10:32:53;4.18;;;0.73;;
31206;SDS011;17834;52.992;8.856;2023-08-21T10:35:23;4.43;;;0.85;;
31206;SDS011;17834;52.992;8.856;2023-08-21T10:38:06;2.22;;;0.90;;
31206;SDS011;17834;52.992;8.856;2023-08-21T10:40:40;2.67;;;0.80;;
31206;SDS011;17834;52.992;8.856;2023-08-21T10:46:05;2.90;;;0.80;;
31206;SDS011;17834;52.992;8.856;2023-08-21T10:48:31;1.98;;;0.85;;
31206;SDS011;17834;52.992;8.856;2023-08-21T10:50:58;3.58;;;0.82;;
31206;SDS011;17834;52.992;8.856;2023-08-21T10:53:29;5.22;;;0.65;;
31206;SDS011;17834;52.992;8.856;2023-08-21T10:55:55;1.80;;;0.50;;
31206;SDS011;17834;52.992;8.856;2023-08-21T10:58:21;4.35;;;0.95;;
31206;SDS011;17834;52.992;8.856;2023-08-21T11:00:55;2.40;;;0.90;;
31206;SDS011;17834;52.992;8.856;2023-08-21T11:03:22;4.50;;;0.90;;
31206;SDS011;17834;52.992;8.856;2023-08-21T11:05:59;3.40;;;0.93;;
31206;SDS011;17834;52.992;8.856;2023-08-21T11:08:26;4.43;;;1.33;;
31206;SDS011;17834;52.992;8.856;2023-08-21T11:10:53;5.90;;;2.05;;
31206;SDS011;17834;52.992;8.856;2023-08-21T11:13:18;7.82;;;1.27;;
31206;SDS011;17834;52.992;8.856;2023-08-21T11:15:44;5.85;;;1.35;;
31206;SDS011;17834;52.992;8.856;2023-08-21T11:18:10;2.58;;;0.98;;
31206;SDS011;17834;52.992;8.856;2023-08-21T11:20:36;3.45;;;1.15;;
31206;SDS011;17834;52.992;8.856;2023-08-21T11:23:02;3.90;;;1.17;;
31206;SDS011;17834;52.992;8.856;2023-08-21T11:25:32;3.80;;;0.90;;
31206;SDS011;17834;52.992;8.856;2023-08-21T11:27:59;2.50;;;0.80;;
31206;SDS011;17834;52.992;8.856;2023-08-21T11:30:27;3.05;;;0.88;;
31206;SDS011;17834;52.992;8.856;2023-08-21T11:33:09;1.77;;;0.90;;
31206;SDS011;17834;52.992;8.856;2023-08-21T11:35:35;2.67;;;0.95;;
31206;SDS011;17834;52.992;8.856;2023-08-21T11:38:03;4.57;;;1.10;;
31206;SDS011;17834;52.992;8.856;2023-08-21T11:40:29;4.10;;;0.73;;
31206;SDS011;17834;52.992;8.856;2023-08-21T11:42:59;2.42;;;0.85;;
31206;SDS011;17834;52.992;8.856;2023-08-21T11:45:26;1.85;;;0.80;;
31206;SDS011;17834;52.992;8.856;2023-08-21T11:47:51;3.00;;;1.00;;
31206;SDS011;17834;52.992;8.856;2023-08-21T11:50:21;3.17;;;0.85;;
31206;SDS011;17834;52.992;8.856;2023-08-21T11:52:46;5.57;;;0.93;;
31206;SDS011;17834;52.992;8.856;2023-08-21T11:55:12;2.20;;;0.57;;
31206;SDS011;17834;52.992;8.856;2023-08-21T11:57:50;3.22;;;0.65;;
31206;SDS011;17834;52.992;8.856;2023-08-21T12:00:16;3.15;;;0.68;;
31206;SDS011;17834;52.992;8.856;2023-08-21T12:02:44;1.88;;;0.80;;
31206;SDS011;17834;52.992;8.856;2023-08-21T12:05:22;1.63;;;0.60;;
31206;SDS011;17834;52.992;8.856;2023-08-21T12:07:47;2.88;;;0.82;;
31206;SDS011;17834;52.992;8.856;2023-08-21T12:10:13;3.78;;;1.33;;
31206;SDS011;17834;52.992;8.856;2023-08-21T12:12:39;1.23;;;0.60;;
31206;SDS011;17834;52.992;8.856;2023-08-21T12:15:04;2.95;;;0.52;;
31206;SDS011;17834;52.992;8.856;2023-08-21T12:17:30;1.77;;;0.55;;
31206;SDS011;17834;52.992;8.856;2023-08-21T12:19:56;3.53;;;1.25;;
31206;SDS011;17834;52.992;8.856;2023-08-21T12:22:21;1.80;;;1.05;;
31206;SDS011;17834;52.992;8.856;2023-08-21T12:24:47;1.70;;;0.63;;
31206;SDS011;17834;52.992;8.856;2023-08-21T12:27:12;2.78;;;0.82;;
31206;SDS011;17834;52.992;8.856;2023-08-21T12:29:38;1.55;;;0.75;;
31206;SDS011;17834;52.992;8.856;2023-08-21T12:32:03;1.90;;;0.75;;
31206;SDS011;17834;52.992;8.856;2023-08-21T12:34:29;6.15;;;1.15;;
31206;SDS011;17834;52.992;8.856;2023-08-21T12:36:55;3.10;;;0.70;;
31206;SDS011;17834;52.992;8.856;2023-08-21T12:39:21;1.60;;;0.70;;
31206;SDS011;17834;52.992;8.856;2023-08-21T12:41:47;2.85;;;0.77;;
31206;SDS011;17834;52.992;8.856;2023-08-21T12:44:13;4.00;;;0.70;;
31206;SDS011;17834;52.992;8.856;2023-08-21T12:46:39;3.45;;;0.70;;
31206;SDS011;17834;52.992;8.856;2023-08-21T12:49:05;2.30;;;0.82;;
31206;SDS011;17834;52.992;8.856;2023-08-21T12:51:31;1.70;;;0.88;;
31206;SDS011;17834;52.992;8.856;2023-08-21T12:53:57;1.88;;;0.95;;
31206;SDS011;17834;52.992;8.856;2023-08-21T12:56:22;3.10;;;0.90;;
31206;SDS011;17834;52.992;8.856;2023-08-21T12:58:48;2.38;;;0.70;;
31206;SDS011;17834;52.992;8.856;2023-08-21T13:01:13;2.40;;;0.60;;
31206;SDS011;17834;52.992;8.856;2023-08-21T13:03:43;2.28;;;0.80;;
31206;SDS011;17834;52.992;8.856;2023-08-21T13:06:09;2.10;;;0.82;;
31206;SDS011;17834;52.992;8.856;2023-08-21T13:08:35;4.82;;;0.90;;
31206;SDS011;17834;52.992;8.856;2023-08-21T13:11:00;2.42;;;0.80;;
31206;SDS011;17834;52.992;8.856;2023-08-21T13:13:27;1.33;;;0.60;;
31206;SDS011;17834;52.992;8.856;2023-08-21T13:15:53;2.05;;;0.70;;
31206;SDS011;17834;52.992;8.856;2023-08-21T13:18:19;3.35;;;0.98;;
31206;SDS011;17834;52.992;8.856;2023-08-21T13:20:45;1.92;;;0.80;;
31206;SDS011;17834;52.992;8.856;2023-08-21T13:23:10;2.85;;;0.88;;
31206;SDS011;17834;52.992;8.856;2023-08-21T13:25:36;4.28;;;1.13;;
31206;SDS011;17834;52.992;8.856;2023-08-21T13:28:02;2.85;;;0.77;;
31206;SDS011;17834;52.992;8.856;2023-08-21T13:30:28;1.92;;;0.60;;
31206;SDS011;17834;52.992;8.856;2023-08-21T13:32:54;1.30;;;0.52;;
31206;SDS011;17834;52.992;8.856;2023-08-21T13:35:20;1.65;;;0.80;;
31206;SDS011;17834;52.992;8.856;2023-08-21T13:37:47;2.80;;;0.80;;
31206;SDS011;17834;52.992;8.856;2023-08-21T13:40:13;2.25;;;1.00;;
31206;SDS011;17834;52.992;8.856;2023-08-21T13:42:41;1.48;;;0.70;;
31206;SDS011;17834;52.992;8.856;2023-08-21T13:45:11;2.20;;;0.80;;
31206;SDS011;17834;52.992;8.856;2023-08-21T13:47:39;6.00;;;1.13;;
31206;SDS011;17834;52.992;8.856;2023-08-21T13:50:12;2.17;;;0.70;;
31206;SDS011;17834;52.992;8.856;2023-08-21T13:52:39;2.88;;;0.80;;
31206;SDS011;17834;52.992;8.856;2023-08-21T13:55:05;2.95;;;1.08;;
31206;SDS011;17834;52.992;8.856;2023-08-21T13:57:31;3.58;;;0.98;;
31206;SDS011;17834;52.992;8.856;2023-08-21T13:59:58;2.30;;;0.77;;
31206;SDS011;17834;52.992;8.856;2023-08-21T14:02:24;2.42;;;0.85;;
31206;SDS011;17834;52.992;8.856;2023-08-21T14:04:49;1.30;;;0.80;;
31206;SDS011;17834;52.992;8.856;2023-08-21T14:07:15;2.10;;;1.00;;
31206;SDS011;17834;52.992;8.856;2023-08-21T14:09:41;1.75;;;0.70;;
31206;SDS011;17834;52.992;8.856;2023-08-21T14:12:06;2.35;;;0.68;;
31206;SDS011;17834;52.992;8.856;2023-08-21T14:14:32;2.75;;;0.60;;
31206;SDS011;17834;52.992;8.856;2023-08-21T14:16:58;1.88;;;0.82;;
31206;SDS011;17834;52.992;8.856;2023-08-21T14:19:24;1.15;;;0.60;;
31206;SDS011;17834;52.992;8.856;2023-08-21T14:21:49;5.88;;;0.70;;
31206;SDS011;17834;52.992;8.856;2023-08-21T14:24:15;1.85;;;0.70;;
31206;SDS011;17834;52.992;8.856;2023-08-21T14:26:41;1.80;;;0.88;;
31206;SDS011;17834;52.992;8.856;2023-08-21T14:29:07;2.25;;;0.57;;
31206;SDS011;17834;52.992;8.856;2023-08-21T14:31:32;2.75;;;0.70;;
31206;SDS011;17834;52.992;8.856;2023-08-21T14:33:58;3.10;;;0.70;;
31206;SDS011;17834;52.992;8.856;2023-08-21T14:36:23;2.03;;;0.75;;
31206;SDS011;17834;52.992;8.856;2023-08-21T14:38:49;2.17;;;0.73;;
31206;SDS011;17834;52.992;8.856;2023-08-21T14:41:15;2.42;;;0.75;;
31206;SDS011;17834;52.992;8.856;2023-08-21T14:43:41;2.10;;;0.57;;
31206;SDS011;17834;52.992;8.856;2023-08-21T14:46:07;1.65;;;0.60;;